createdAt,value
2022-12-06T00:01:59.283Z,85207.80
2022-12-06T00:04:28.983Z,85210.40
2022-12-06T00:06:59.611Z,85215.80
2022-12-06T00:09:32.486Z,85211.60
2022-12-06T00:12:02.192Z,85209.00
2022-12-06T00:14:31.199Z,85214.20
2022-12-06T00:17:00.610Z,85203.00
2022-12-06T00:19:29.928Z,85206.80
2022-12-06T00:21:59.366Z,85201.60
2022-12-06T00:24:28.405Z,85200.80
2022-12-06T00:26:57.329Z,85203.60
2022-12-06T00:29:26.602Z,85199.00
2022-12-06T00:31:55.829Z,85202.80
2022-12-06T00:34:25.267Z,85194.40
2022-12-06T00:36:54.265Z,85200.00
2022-12-06T00:39:23.355Z,85197.60
2022-12-06T00:41:52.954Z,85187.20
2022-12-06T00:44:22.084Z,85193.40
2022-12-06T00:46:51.330Z,85202.00
2022-12-06T00:49:20.515Z,85193.80
2022-12-06T00:51:49.494Z,85200.80
2022-12-06T00:54:19.580Z,85196.40
2022-12-06T00:56:48.783Z,85193.40
2022-12-06T00:59:17.915Z,85194.40
2022-12-06T01:01:47.282Z,85197.80
2022-12-06T01:04:17.219Z,85199.60
2022-12-06T01:06:46.294Z,85192.40
2022-12-06T01:09:18.173Z,85197.60
2022-12-06T01:11:47.178Z,85192.00
2022-12-06T01:14:16.169Z,85189.00
2022-12-06T01:16:45.271Z,85196.60
2022-12-06T01:19:14.862Z,85201.80
2022-12-06T01:21:44.084Z,85203.20
2022-12-06T01:24:13.172Z,85205.40
2022-12-06T01:26:42.152Z,85206.00
2022-12-06T01:29:12.325Z,85202.60
2022-12-06T01:31:41.177Z,85211.60
2022-12-06T01:34:18.096Z,85219.00
2022-12-06T01:36:47.318Z,85218.00
2022-12-06T01:39:16.593Z,85219.80
2022-12-06T01:41:45.593Z,85230.20
2022-12-06T01:44:42.249Z,85226.00
2022-12-06T01:47:27.513Z,85228.40
2022-12-06T01:50:05.904Z,85235.20
2022-12-06T01:52:55.938Z,85242.60
2022-12-06T01:55:32.138Z,85246.00
2022-12-06T01:58:11.317Z,85240.40
2022-12-06T02:00:41.007Z,85244.20
2022-12-06T02:03:24.335Z,85250.40
2022-12-06T02:05:56.983Z,85247.80
2022-12-06T02:08:27.574Z,85253.20
2022-12-06T02:10:57.263Z,85255.80
2022-12-06T02:13:28.206Z,85264.20
2022-12-06T02:16:25.994Z,85264.00
2022-12-06T02:19:12.539Z,85262.40
2022-12-06T02:22:21.095Z,85270.20
2022-12-06T02:25:17.620Z,85269.60
2022-12-06T02:28:36.312Z,85280.00
2022-12-06T02:31:44.092Z,85280.00
2022-12-06T02:34:44.083Z,85289.20
2022-12-06T02:37:38.794Z,85290.80
2022-12-06T02:40:35.478Z,85294.40
2022-12-06T02:43:39.132Z,85305.20
2022-12-06T02:46:09.368Z,85313.40
2022-12-06T02:48:40.670Z,85309.20
2022-12-06T02:51:16.449Z,85309.40
2022-12-06T02:53:52.017Z,85322.00
2022-12-06T02:56:22.248Z,85314.00
2022-12-06T02:58:51.506Z,85307.40
2022-12-06T03:01:34.751Z,85322.20
2022-12-06T03:04:33.643Z,85322.20
2022-12-06T03:07:38.063Z,85325.80
2022-12-06T03:10:29.765Z,85329.20
2022-12-06T03:13:48.066Z,85326.60
2022-12-06T03:16:34.554Z,85330.40
2022-12-06T03:19:22.136Z,85325.00
2022-12-06T03:22:19.995Z,85328.00
2022-12-06T03:24:49.309Z,85341.40
2022-12-06T03:27:22.079Z,85331.00
2022-12-06T03:29:59.297Z,85333.00
2022-12-06T03:32:34.817Z,85331.40
2022-12-06T03:35:11.256Z,85335.00
2022-12-06T03:37:46.564Z,85338.00
2022-12-06T03:40:32.052Z,85327.60
2022-12-06T03:43:04.218Z,85336.20
2022-12-06T03:45:54.724Z,85332.80
2022-12-06T03:48:37.706Z,85332.60
2022-12-06T03:51:12.513Z,85334.40
2022-12-06T03:54:00.532Z,85331.20
2022-12-06T03:56:37.922Z,85333.40
2022-12-06T03:59:09.772Z,85336.00
2022-12-06T04:01:40.618Z,85333.00
2022-12-06T04:04:12.061Z,85336.80
2022-12-06T04:06:41.159Z,85340.00
2022-12-06T04:09:29.859Z,85336.40
2022-12-06T04:11:58.826Z,85337.40
2022-12-06T04:14:33.581Z,85338.00
2022-12-06T04:17:34.498Z,85332.00
2022-12-06T04:20:04.710Z,85328.40
2022-12-06T04:22:52.243Z,85333.80
2022-12-06T04:25:21.346Z,85340.60
2022-12-06T04:28:08.688Z,85352.00
2022-12-06T04:30:55.582Z,85349.80
2022-12-06T04:33:42.953Z,85341.80
2022-12-06T04:36:30.164Z,85353.00
2022-12-06T04:39:01.478Z,85353.80
2022-12-06T04:41:48.935Z,85352.60
2022-12-06T04:44:18.611Z,85358.80
2022-12-06T04:46:47.711Z,85365.20
2022-12-06T04:49:17.026Z,85366.40
2022-12-06T04:51:46.243Z,85357.80
2022-12-06T04:54:16.198Z,85358.20
2022-12-06T04:56:45.379Z,85367.80
2022-12-06T04:59:14.415Z,85360.60
2022-12-06T05:01:43.581Z,85345.00
2022-12-06T05:04:12.605Z,85326.20
2022-12-06T05:06:41.782Z,85336.40
2022-12-06T05:09:10.725Z,85328.20
2022-12-06T05:11:39.825Z,85326.40
2022-12-06T05:14:09.027Z,85330.20
2022-12-06T05:16:38.104Z,85331.00
2022-12-06T05:19:10.482Z,85340.40
2022-12-06T05:21:40.233Z,85347.60
2022-12-06T05:24:09.952Z,85342.80
2022-12-06T05:26:39.060Z,85343.00
2022-12-06T05:29:07.978Z,85346.20
2022-12-06T05:31:36.983Z,85355.00
2022-12-06T05:34:05.933Z,85364.20
2022-12-06T05:36:35.071Z,85359.80
2022-12-06T05:39:04.511Z,85351.20
2022-12-06T05:41:33.751Z,85362.80
2022-12-06T05:44:02.689Z,85361.20
2022-12-06T05:46:31.632Z,85356.00
2022-12-06T05:49:00.478Z,85352.00
2022-12-06T05:51:29.491Z,85366.00
2022-12-06T05:53:58.729Z,85361.20
2022-12-06T05:56:28.178Z,85357.80
2022-12-06T05:58:57.364Z,85367.20
2022-12-06T06:01:26.476Z,85377.80
2022-12-06T06:03:55.672Z,85362.40
2022-12-06T06:06:24.929Z,85361.00
2022-12-06T06:08:53.984Z,85359.40
2022-12-06T06:11:24.021Z,85355.80
2022-12-06T06:13:55.519Z,85363.40
2022-12-06T06:16:24.537Z,85358.20
2022-12-06T06:18:53.851Z,85369.40
2022-12-06T06:21:23.672Z,85365.00
2022-12-06T06:23:53.055Z,85364.00
2022-12-06T06:26:24.857Z,85364.80
2022-12-06T06:28:54.024Z,85355.80
2022-12-06T06:31:23.766Z,85360.40
2022-12-06T06:33:52.837Z,85357.40
2022-12-06T06:36:21.886Z,85366.20
2022-12-06T06:38:50.964Z,85358.80
2022-12-06T06:41:20.088Z,85358.80
2022-12-06T06:43:49.247Z,85361.20
2022-12-06T06:46:18.509Z,85367.60
2022-12-06T06:48:49.268Z,85373.40
2022-12-06T06:51:18.591Z,85375.20
2022-12-06T06:53:47.529Z,85375.60
2022-12-06T06:56:17.075Z,85379.60
2022-12-06T06:58:46.079Z,85379.40
2022-12-06T07:01:24.819Z,85381.20
2022-12-06T07:03:54.331Z,85380.80
2022-12-06T07:06:23.882Z,85376.40
2022-12-06T07:08:53.343Z,85372.20
2022-12-06T07:11:24.923Z,85372.60
2022-12-06T07:13:54.034Z,85368.40
2022-12-06T07:16:23.147Z,85371.40
2022-12-06T07:18:52.650Z,85368.40
2022-12-06T07:21:24.588Z,85368.60
2022-12-06T07:23:54.323Z,85365.20
2022-12-06T07:26:25.835Z,85360.80
2022-12-06T07:28:54.752Z,85369.60
2022-12-06T07:31:28.059Z,85363.20
2022-12-06T07:34:02.968Z,85363.60
2022-12-06T07:36:33.657Z,85362.20
2022-12-06T07:39:03.078Z,85361.00
2022-12-06T07:41:50.707Z,85358.60
2022-12-06T07:44:38.509Z,85359.80
2022-12-06T07:47:07.750Z,85368.20
2022-12-06T07:49:36.830Z,85362.40
2022-12-06T07:52:05.907Z,85356.40
2022-12-06T07:54:35.004Z,85359.60
2022-12-06T07:57:04.619Z,85355.60
2022-12-06T07:59:33.512Z,85343.60
2022-12-06T08:02:02.549Z,85351.00
2022-12-06T08:04:31.683Z,85343.60
2022-12-06T08:07:01.853Z,85348.20
2022-12-06T08:09:30.995Z,85344.00
2022-12-06T08:12:02.566Z,85333.00
2022-12-06T08:14:31.729Z,85333.80
2022-12-06T08:17:00.691Z,85335.20
2022-12-06T08:19:29.925Z,85339.00
2022-12-06T08:21:59.067Z,85340.20
2022-12-06T08:24:27.976Z,85333.60
2022-12-06T08:26:57.270Z,85343.80
2022-12-06T08:29:26.354Z,85344.60
2022-12-06T08:31:55.513Z,85337.80
2022-12-06T08:34:24.667Z,85334.80
2022-12-06T08:36:56.036Z,85345.20
2022-12-06T08:39:29.613Z,85346.60
2022-12-06T08:42:04.070Z,85344.20
2022-12-06T08:44:34.381Z,85350.80
2022-12-06T08:47:04.608Z,85344.20
2022-12-06T08:49:33.839Z,85357.20
2022-12-06T08:52:03.338Z,85347.00
2022-12-06T08:54:33.053Z,85347.40
2022-12-06T08:57:02.123Z,85354.20
2022-12-06T08:59:31.050Z,85354.20
2022-12-06T09:02:00.499Z,85354.20
2022-12-06T09:04:30.134Z,85344.60
2022-12-06T09:06:59.266Z,85347.40
2022-12-06T09:09:28.614Z,85346.60
2022-12-06T09:11:57.707Z,85349.60
2022-12-06T09:14:26.825Z,85353.00
2022-12-06T09:16:56.035Z,85344.80
2022-12-06T09:19:24.922Z,85344.80
2022-12-06T09:21:53.756Z,85346.40
2022-12-06T09:24:23.226Z,85349.80
2022-12-06T09:26:52.166Z,85342.40
2022-12-06T09:29:24.135Z,85339.80
2022-12-06T09:31:55.087Z,85343.20
2022-12-06T09:34:24.135Z,85352.60
2022-12-06T09:37:10.317Z,85349.80
2022-12-06T09:39:48.959Z,85350.80
2022-12-06T09:42:37.516Z,85363.60
2022-12-06T09:45:49.458Z,85359.20
2022-12-06T09:48:53.115Z,85358.60
2022-12-06T09:51:41.951Z,85360.20
2022-12-06T09:54:55.873Z,85355.20
2022-12-06T09:57:55.666Z,85361.00
2022-12-06T10:00:26.386Z,85355.40
2022-12-06T10:03:01.201Z,85363.00
2022-12-06T10:06:05.079Z,85359.40
2022-12-06T10:08:56.343Z,85355.80
2022-12-06T10:12:11.318Z,85366.00
2022-12-06T10:14:57.986Z,85361.20
2022-12-06T10:17:50.537Z,85363.00
2022-12-06T10:21:07.198Z,85366.20
2022-12-06T10:24:20.465Z,85357.60
2022-12-06T10:27:01.708Z,85365.00
2022-12-06T10:29:42.439Z,85366.20
2022-12-06T10:33:06.449Z,85361.00
2022-12-06T10:35:48.921Z,85363.00
2022-12-06T10:39:04.374Z,85367.40
2022-12-06T10:41:46.309Z,85369.00
2022-12-06T10:44:54.966Z,85364.00
2022-12-06T10:47:45.519Z,85373.40
2022-12-06T10:50:31.169Z,85368.00
2022-12-06T10:53:14.464Z,85370.20
2022-12-06T10:56:01.606Z,85379.20
2022-12-06T10:59:18.906Z,85386.80
2022-12-06T11:01:50.295Z,85383.60
2022-12-06T11:04:33.780Z,85387.00
2022-12-06T11:07:19.850Z,85388.60
2022-12-06T11:09:54.949Z,85392.00
2022-12-06T11:12:40.686Z,85401.40
2022-12-06T11:15:36.930Z,85408.20
2022-12-06T11:18:16.844Z,85416.00
2022-12-06T11:21:07.765Z,85408.60
2022-12-06T11:24:17.005Z,85413.80
2022-12-06T11:26:50.993Z,85416.20
2022-12-06T11:29:20.783Z,85415.20
2022-12-06T11:31:56.374Z,85423.60
2022-12-06T11:34:38.227Z,85424.40
2022-12-06T11:37:12.416Z,85434.00
2022-12-06T11:39:41.859Z,85425.00
2022-12-06T11:42:16.671Z,85430.80
2022-12-06T11:44:55.191Z,85429.40
2022-12-06T11:47:25.755Z,85435.40
2022-12-06T11:50:02.800Z,85430.80
2022-12-06T11:52:49.319Z,85431.80
2022-12-06T11:55:36.290Z,85437.60
2022-12-06T11:58:31.530Z,85429.20
2022-12-06T12:01:11.908Z,85434.20
2022-12-06T12:03:47.586Z,85429.00
2022-12-06T12:06:25.261Z,85437.00
2022-12-06T12:09:01.568Z,85437.40
2022-12-06T12:11:35.907Z,85427.60
2022-12-06T12:14:17.383Z,85424.40
2022-12-06T12:16:52.042Z,85439.00
2022-12-06T12:19:48.541Z,85425.80
2022-12-06T12:23:27.893Z,85432.20
2022-12-06T12:26:17.125Z,85425.20
2022-12-06T12:29:05.797Z,85434.40
2022-12-06T12:31:46.739Z,85425.20
2022-12-06T12:34:41.581Z,85423.20
2022-12-06T12:37:23.212Z,85423.40
2022-12-06T12:39:56.671Z,85422.60
2022-12-06T12:42:36.024Z,85435.00
2022-12-06T12:45:07.515Z,85424.40
2022-12-06T12:47:37.697Z,85431.80
2022-12-06T12:50:21.519Z,85430.80
2022-12-06T12:52:51.145Z,85426.00
2022-12-06T12:55:26.267Z,85434.60
2022-12-06T12:57:59.937Z,85438.60
2022-12-06T13:00:44.695Z,85436.40
2022-12-06T13:03:50.064Z,85454.80
2022-12-06T13:06:46.374Z,85447.40
2022-12-06T13:09:30.665Z,85441.60
2022-12-06T13:12:12.188Z,85456.20
2022-12-06T13:14:53.204Z,85457.80
2022-12-06T13:17:28.478Z,85454.20
2022-12-06T13:19:57.659Z,85465.20
2022-12-06T13:22:34.210Z,85471.80
2022-12-06T13:25:09.341Z,85466.00
2022-12-06T13:27:48.324Z,85464.40
2022-12-06T13:30:26.631Z,85468.60
2022-12-06T13:33:25.848Z,85466.00
2022-12-06T13:36:13.619Z,85471.60
2022-12-06T13:38:45.057Z,85473.80
2022-12-06T13:41:56.025Z,85465.20
2022-12-06T13:44:52.371Z,85475.80
2022-12-06T13:47:31.387Z,85462.00
2022-12-06T13:50:20.621Z,85474.00
2022-12-06T13:52:49.887Z,85466.80
2022-12-06T13:55:29.642Z,85467.40
2022-12-06T13:58:19.008Z,85472.20
2022-12-06T14:00:52.498Z,85458.60
2022-12-06T14:03:21.564Z,85462.00
2022-12-06T14:06:15.943Z,85458.00
2022-12-06T14:09:02.128Z,85459.40
2022-12-06T14:11:39.547Z,85454.60
2022-12-06T14:14:26.696Z,85449.80
2022-12-06T14:17:07.099Z,85453.20
2022-12-06T14:19:52.130Z,85456.80
2022-12-06T14:22:29.165Z,85458.00
2022-12-06T14:25:19.781Z,85457.00
2022-12-06T14:27:52.951Z,85462.40
2022-12-06T14:30:27.048Z,85459.60
2022-12-06T14:32:59.518Z,85453.00
2022-12-06T14:35:28.562Z,85463.60
2022-12-06T14:38:03.046Z,85460.00
2022-12-06T14:41:01.996Z,85461.20
2022-12-06T14:43:35.024Z,85470.40
2022-12-06T14:46:16.227Z,85469.00
2022-12-06T14:52:01.042Z,85461.00
2022-12-06T14:54:36.202Z,85465.00
2022-12-06T14:57:06.255Z,85465.00
2022-12-06T15:02:30.598Z,85472.20
2022-12-06T15:05:01.237Z,85460.20
2022-12-06T15:07:56.331Z,85465.80
2022-12-06T15:10:33.871Z,85473.80
2022-12-06T15:13:20.220Z,85475.20
2022-12-06T15:15:50.181Z,85470.60
2022-12-06T15:18:26.721Z,85476.80
2022-12-06T15:20:56.622Z,85476.00
2022-12-06T15:23:42.469Z,85483.40
2022-12-06T15:26:14.625Z,85482.20
2022-12-06T15:28:44.171Z,85492.20
2022-12-06T15:31:20.982Z,85488.00
2022-12-06T15:33:51.049Z,85487.20
2022-12-06T15:36:27.990Z,85488.40
2022-12-06T15:38:57.376Z,85485.60
2022-12-06T15:41:29.761Z,85473.20
2022-12-06T15:43:58.624Z,85485.40
2022-12-06T15:46:30.745Z,85481.00
2022-12-06T15:49:00.403Z,85482.20
2022-12-06T15:51:30.703Z,85480.00
2022-12-06T15:54:03.829Z,85476.00
2022-12-06T15:56:33.002Z,85473.00
2022-12-06T15:59:02.161Z,85472.40
2022-12-06T16:01:44.736Z,85467.00
2022-12-06T16:04:22.301Z,85471.60
2022-12-06T16:06:51.853Z,85473.80
2022-12-06T16:09:21.574Z,85471.00
2022-12-06T16:11:50.445Z,85472.60
2022-12-06T16:14:19.375Z,85463.60
2022-12-06T16:16:48.288Z,85472.80
2022-12-06T16:19:17.602Z,85469.80
2022-12-06T16:21:59.595Z,85472.20
2022-12-06T16:24:28.448Z,85472.00
2022-12-06T16:26:57.309Z,85472.40
2022-12-06T16:29:26.235Z,85484.20
2022-12-06T16:31:55.631Z,85477.60
2022-12-06T16:34:24.710Z,85488.60
2022-12-06T16:37:01.060Z,85495.40
2022-12-06T16:39:34.491Z,85488.80
2022-12-06T16:42:05.120Z,85482.20
2022-12-06T16:44:34.161Z,85483.40
2022-12-06T16:47:03.148Z,85485.60
2022-12-06T16:49:49.384Z,85476.60
2022-12-06T16:52:19.082Z,85478.00
2022-12-06T16:54:48.185Z,85492.80
2022-12-06T16:57:17.338Z,85490.40
2022-12-06T16:59:47.195Z,85484.20
2022-12-06T17:02:35.470Z,85492.00
2022-12-06T17:05:07.462Z,85498.00
2022-12-06T17:07:37.807Z,85486.20
2022-12-06T17:10:07.733Z,85495.40
2022-12-06T17:12:36.746Z,85503.80
2022-12-06T17:15:06.580Z,85499.60
2022-12-06T17:17:35.531Z,85496.20
2022-12-06T17:20:04.497Z,85492.40
2022-12-06T17:22:33.528Z,85494.20
2022-12-06T17:25:03.001Z,85491.20
2022-12-06T17:27:32.214Z,85487.00
2022-12-06T17:30:01.422Z,85500.40
2022-12-06T17:32:31.059Z,85498.20
2022-12-06T17:35:00.181Z,85497.60
2022-12-06T17:37:29.354Z,85503.20
2022-12-06T17:40:00.708Z,85504.00
2022-12-06T17:42:47.913Z,85506.40
2022-12-06T17:45:19.587Z,85501.40
2022-12-06T17:47:52.215Z,85510.00
2022-12-06T17:50:20.984Z,85517.60
2022-12-06T17:52:49.748Z,85518.00
2022-12-06T17:58:20.154Z,85522.20
2022-12-06T18:00:49.578Z,85522.80
2022-12-06T18:03:18.677Z,85519.40
2022-12-06T18:05:49.388Z,85516.00
2022-12-06T18:08:18.681Z,85514.60
2022-12-06T18:10:47.725Z,85514.20
2022-12-06T18:13:17.288Z,85512.80
2022-12-06T18:15:46.373Z,85506.40
2022-12-06T18:18:15.406Z,85508.60
2022-12-06T18:20:44.998Z,85508.00
2022-12-06T18:23:14.849Z,85501.20
2022-12-06T18:25:44.922Z,85504.20
2022-12-06T18:28:14.089Z,85511.60
2022-12-06T18:30:43.305Z,85504.00
2022-12-06T18:33:17.566Z,85496.00
2022-12-06T18:35:48.465Z,85491.40
2022-12-06T18:38:17.567Z,85480.40
2022-12-06T18:40:47.115Z,85461.80
2022-12-06T18:43:16.243Z,85471.20
2022-12-06T18:45:45.849Z,85471.20
2022-12-06T18:48:15.216Z,85474.20
2022-12-06T18:50:44.466Z,85460.40
2022-12-06T18:53:14.276Z,85460.00
2022-12-06T18:55:44.417Z,85456.00
2022-12-06T18:58:13.396Z,85450.60
2022-12-06T19:00:44.580Z,85440.80
2022-12-06T19:03:14.976Z,85445.80
2022-12-06T19:06:02.429Z,85433.20
2022-12-06T19:08:31.835Z,85431.40
2022-12-06T19:11:03.495Z,85430.60
2022-12-06T19:13:32.469Z,85431.80
2022-12-06T19:16:06.287Z,85423.80
2022-12-06T19:18:35.558Z,85427.00
2022-12-06T19:21:04.812Z,85430.20
2022-12-06T19:23:34.387Z,85421.80
2022-12-06T19:26:05.227Z,85417.40
2022-12-06T19:28:35.429Z,85423.20
2022-12-06T19:31:08.687Z,85418.40
2022-12-06T19:33:42.102Z,85413.00
2022-12-06T19:36:25.290Z,85396.20
2022-12-06T19:39:04.175Z,85406.20
2022-12-06T19:41:33.988Z,85397.60
2022-12-06T19:44:18.772Z,85393.80
2022-12-06T19:46:49.337Z,85384.60
2022-12-06T19:49:22.491Z,85381.40
2022-12-06T19:51:52.758Z,85381.20
2022-12-06T19:54:33.703Z,85378.20
2022-12-06T19:57:03.736Z,85369.80
2022-12-06T19:59:40.210Z,85363.80
2022-12-06T20:02:11.420Z,85361.00
2022-12-06T20:04:43.480Z,85369.40
2022-12-06T20:07:13.401Z,85359.00
2022-12-06T20:09:42.608Z,85354.00
2022-12-06T20:12:14.479Z,85359.20
2022-12-06T20:14:49.398Z,85363.20
2022-12-06T20:17:25.132Z,85366.00
2022-12-06T20:19:54.118Z,85368.80
2022-12-06T20:22:25.932Z,85369.60
2022-12-06T20:24:55.015Z,85369.40
2022-12-06T20:27:44.167Z,85369.20
2022-12-06T20:30:14.283Z,85372.60
2022-12-06T20:32:43.922Z,85371.60
2022-12-06T20:35:12.844Z,85368.60
2022-12-06T20:37:42.722Z,85377.40
2022-12-06T20:40:12.744Z,85383.60
2022-12-06T20:42:41.716Z,85383.20
2022-12-06T20:45:10.967Z,85390.40
2022-12-06T20:47:40.118Z,85384.60
2022-12-06T20:50:10.484Z,85383.20
2022-12-06T20:52:39.443Z,85400.60
2022-12-06T20:55:09.026Z,85396.00
2022-12-06T20:57:38.948Z,85399.40
2022-12-06T21:00:11.854Z,85389.80
2022-12-06T21:02:41.466Z,85413.00
2022-12-06T21:05:10.860Z,85407.00
2022-12-06T21:07:39.957Z,85409.00
2022-12-06T21:10:10.137Z,85403.80
2022-12-06T21:12:39.146Z,85397.20
2022-12-06T21:15:08.942Z,85406.00
2022-12-06T21:17:38.371Z,85405.80
2022-12-06T21:20:09.103Z,85409.60
2022-12-06T21:22:38.356Z,85409.40
2022-12-06T21:25:07.754Z,85404.80
2022-12-06T21:27:36.850Z,85411.20
2022-12-06T21:30:08.845Z,85413.60
2022-12-06T21:32:38.111Z,85417.00
2022-12-06T21:35:07.557Z,85416.80
2022-12-06T21:37:36.972Z,85428.60
2022-12-06T21:40:06.958Z,85435.20
2022-12-06T21:42:36.004Z,85429.20
2022-12-06T21:45:05.971Z,85433.00
2022-12-06T21:47:35.340Z,85431.80
2022-12-06T21:50:04.711Z,85421.80
2022-12-06T21:52:33.831Z,85425.00
2022-12-06T21:55:03.018Z,85424.80
2022-12-06T21:57:35.773Z,85411.60
2022-12-06T22:00:22.621Z,85416.00
2022-12-06T22:03:04.737Z,85401.20
2022-12-06T22:05:36.563Z,85404.40
2022-12-06T22:08:17.718Z,85409.00
2022-12-06T22:10:48.977Z,85403.40
2022-12-06T22:13:25.283Z,85399.40
2022-12-06T22:15:57.844Z,85386.20
2022-12-06T22:18:38.771Z,85391.20
2022-12-06T22:21:30.597Z,85394.40
2022-12-06T22:24:12.263Z,85387.20
2022-12-06T22:26:41.652Z,85386.40
2022-12-06T22:29:11.771Z,85387.80
2022-12-06T22:31:40.899Z,85396.80
2022-12-06T22:34:12.573Z,85387.20
2022-12-06T22:36:41.996Z,85386.20
2022-12-06T22:39:13.009Z,85389.00
2022-12-06T22:41:42.354Z,85388.00
2022-12-06T22:44:13.832Z,85387.80
2022-12-06T22:46:43.267Z,85388.00
2022-12-06T22:49:17.861Z,85391.40
2022-12-06T22:51:47.757Z,85381.40
2022-12-06T22:54:17.409Z,85390.60
2022-12-06T22:56:49.985Z,85392.20
2022-12-06T22:59:19.933Z,85395.00
2022-12-06T23:01:49.285Z,85402.00
2022-12-06T23:04:18.860Z,85405.80
2022-12-06T23:06:48.245Z,85400.60
2022-12-06T23:09:18.387Z,85419.80
2022-12-06T23:11:47.609Z,85406.00
2022-12-06T23:14:17.023Z,85415.80
2022-12-06T23:16:46.662Z,85408.00
2022-12-06T23:19:16.205Z,85410.80
2022-12-06T23:21:45.642Z,85405.20
2022-12-06T23:24:16.587Z,85403.00
2022-12-06T23:26:56.082Z,85412.40
2022-12-06T23:29:27.158Z,85406.60
2022-12-06T23:31:56.563Z,85416.20
2022-12-06T23:34:27.634Z,85425.20
2022-12-06T23:36:58.273Z,85421.20
2022-12-06T23:39:28.008Z,85426.40
2022-12-06T23:41:57.743Z,85424.60
2022-12-06T23:44:27.286Z,85425.80
2022-12-06T23:46:56.720Z,85433.20
2022-12-06T23:49:26.136Z,85430.40
2022-12-06T23:51:55.523Z,85437.20
2022-12-06T23:54:25.004Z,85435.80
2022-12-06T23:56:55.538Z,85433.20
2022-12-06T23:59:24.741Z,85441.80
